sensor_id;sensor_type;location;lat;lon;timestamp;P1;durP1;ratioP1;P2;durP2;ratioP2
8675;SDS011;4375;52.486;13.424;2023-05-07T00:02:24;27.30;;;12.17;;
8675;SDS011;4375;52.486;13.424;2023-05-07T00:04:50;28.13;;;12.70;;
8675;SDS011;4375;52.486;13.424;2023-05-07T00:07:17;27.33;;;12.30;;
8675;SDS011;4375;52.486;13.424;2023-05-07T00:09:42;27.47;;;12.20;;
8675;SDS011;4375;52.486;13.424;2023-05-07T00:12:08;28.53;;;12.77;;
8675;SDS011;4375;52.486;13.424;2023-05-07T00:14:33;27.53;;;10.83;;
8675;SDS011;4375;52.486;13.424;2023-05-07T00:16:59;31.20;;;12.10;;
8675;SDS011;4375;52.486;13.424;2023-05-07T00:19:25;28.27;;;13.60;;
8675;SDS011;4375;52.486;13.424;2023-05-07T00:21:50;27.30;;;12.37;;
8675;SDS011;4375;52.486;13.424;2023-05-07T00:24:18;29.70;;;12.33;;
8675;SDS011;4375;52.486;13.424;2023-05-07T00:26:44;30.20;;;12.03;;
8675;SDS011;4375;52.486;13.424;2023-05-07T00:29:10;30.73;;;11.73;;
8675;SDS011;4375;52.486;13.424;2023-05-07T00:31:35;25.43;;;11.13;;
8675;SDS011;4375;52.486;13.424;2023-05-07T00:34:01;24.63;;;11.20;;
8675;SDS011;4375;52.486;13.424;2023-05-07T00:36:26;24.30;;;10.40;;
8675;SDS011;4375;52.486;13.424;2023-05-07T00:38:53;27.10;;;11.00;;
8675;SDS011;4375;52.486;13.424;2023-05-07T00:41:19;24.07;;;10.50;;
8675;SDS011;4375;52.486;13.424;2023-05-07T00:43:45;30.33;;;12.40;;
8675;SDS011;4375;52.486;13.424;2023-05-07T00:46:10;27.90;;;10.70;;
8675;SDS011;4375;52.486;13.424;2023-05-07T00:48:37;27.03;;;12.30;;
8675;SDS011;4375;52.486;13.424;2023-05-07T00:51:03;24.17;;;10.70;;
8675;SDS011;4375;52.486;13.424;2023-05-07T00:53:28;30.57;;;12.30;;
8675;SDS011;4375;52.486;13.424;2023-05-07T00:55:55;30.77;;;11.93;;
8675;SDS011;4375;52.486;13.424;2023-05-07T00:58:21;27.60;;;11.50;;
8675;SDS011;4375;52.486;13.424;2023-05-07T01:00:47;28.40;;;12.70;;
8675;SDS011;4375;52.486;13.424;2023-05-07T01:03:12;25.10;;;11.17;;
8675;SDS011;4375;52.486;13.424;2023-05-07T01:05:38;27.40;;;11.97;;
8675;SDS011;4375;52.486;13.424;2023-05-07T01:08:04;25.23;;;11.20;;
8675;SDS011;4375;52.486;13.424;2023-05-07T01:10:30;33.97;;;13.17;;
8675;SDS011;4375;52.486;13.424;2023-05-07T01:12:57;26.40;;;10.83;;
8675;SDS011;4375;52.486;13.424;2023-05-07T01:15:24;26.83;;;11.13;;
8675;SDS011;4375;52.486;13.424;2023-05-07T01:17:49;32.23;;;12.10;;
8675;SDS011;4375;52.486;13.424;2023-05-07T01:20:15;28.43;;;12.23;;
8675;SDS011;4375;52.486;13.424;2023-05-07T01:22:43;28.60;;;12.80;;
8675;SDS011;4375;52.486;13.424;2023-05-07T01:25:08;27.73;;;11.57;;
8675;SDS011;4375;52.486;13.424;2023-05-07T01:27:34;26.80;;;12.10;;
8675;SDS011;4375;52.486;13.424;2023-05-07T01:30:01;31.53;;;12.93;;
8675;SDS011;4375;52.486;13.424;2023-05-07T01:32:35;24.90;;;11.80;;
8675;SDS011;4375;52.486;13.424;2023-05-07T01:35:05;28.80;;;11.87;;
8675;SDS011;4375;52.486;13.424;2023-05-07T01:37:35;28.37;;;11.90;;
8675;SDS011;4375;52.486;13.424;2023-05-07T01:40:01;24.10;;;11.37;;
8675;SDS011;4375;52.486;13.424;2023-05-07T01:42:28;24.17;;;10.67;;
8675;SDS011;4375;52.486;13.424;2023-05-07T01:44:54;27.20;;;11.17;;
8675;SDS011;4375;52.486;13.424;2023-05-07T01:47:20;27.20;;;11.93;;
8675;SDS011;4375;52.486;13.424;2023-05-07T01:49:46;24.30;;;10.47;;
8675;SDS011;4375;52.486;13.424;2023-05-07T01:52:12;24.83;;;9.73;;
8675;SDS011;4375;52.486;13.424;2023-05-07T01:54:38;25.67;;;11.03;;
8675;SDS011;4375;52.486;13.424;2023-05-07T01:57:03;25.50;;;10.60;;
8675;SDS011;4375;52.486;13.424;2023-05-07T01:59:29;23.57;;;9.90;;
8675;SDS011;4375;52.486;13.424;2023-05-07T02:01:55;23.87;;;10.57;;
8675;SDS011;4375;52.486;13.424;2023-05-07T02:04:20;25.60;;;10.67;;
8675;SDS011;4375;52.486;13.424;2023-05-07T02:06:46;24.90;;;9.70;;
8675;SDS011;4375;52.486;13.424;2023-05-07T02:09:13;28.27;;;10.37;;
8675;SDS011;4375;52.486;13.424;2023-05-07T02:11:39;26.30;;;11.20;;
8675;SDS011;4375;52.486;13.424;2023-05-07T02:14:05;24.67;;;10.83;;
8675;SDS011;4375;52.486;13.424;2023-05-07T02:16:31;26.63;;;10.73;;
8675;SDS011;4375;52.486;13.424;2023-05-07T02:18:56;28.20;;;10.83;;
8675;SDS011;4375;52.486;13.424;2023-05-07T02:21:23;27.60;;;10.60;;
8675;SDS011;4375;52.486;13.424;2023-05-07T02:23:50;25.90;;;11.47;;
8675;SDS011;4375;52.486;13.424;2023-05-07T02:26:15;25.50;;;10.70;;
8675;SDS011;4375;52.486;13.424;2023-05-07T02:28:41;25.87;;;10.27;;
8675;SDS011;4375;52.486;13.424;2023-05-07T02:31:06;24.30;;;10.83;;
8675;SDS011;4375;52.486;13.424;2023-05-07T02:33:32;25.43;;;10.83;;
8675;SDS011;4375;52.486;13.424;2023-05-07T02:36:08;25.73;;;10.87;;
8675;SDS011;4375;52.486;13.424;2023-05-07T02:38:35;30.60;;;11.00;;
8675;SDS011;4375;52.486;13.424;2023-05-07T02:41:01;24.93;;;10.57;;
8675;SDS011;4375;52.486;13.424;2023-05-07T02:43:26;29.37;;;10.17;;
8675;SDS011;4375;52.486;13.424;2023-05-07T02:46:04;28.50;;;12.27;;
8675;SDS011;4375;52.486;13.424;2023-05-07T02:48:34;26.27;;;10.40;;
8675;SDS011;4375;52.486;13.424;2023-05-07T02:51:00;27.27;;;10.50;;
8675;SDS011;4375;52.486;13.424;2023-05-07T02:53:27;26.60;;;11.43;;
8675;SDS011;4375;52.486;13.424;2023-05-07T02:55:55;24.03;;;10.60;;
8675;SDS011;4375;52.486;13.424;2023-05-07T02:58:22;26.73;;;11.13;;
8675;SDS011;4375;52.486;13.424;2023-05-07T03:00:47;24.47;;;10.83;;
8675;SDS011;4375;52.486;13.424;2023-05-07T03:03:13;25.17;;;11.10;;
8675;SDS011;4375;52.486;13.424;2023-05-07T03:05:39;24.43;;;10.50;;
8675;SDS011;4375;52.486;13.424;2023-05-07T03:08:06;24.60;;;10.73;;
8675;SDS011;4375;52.486;13.424;2023-05-07T03:10:32;26.40;;;9.57;;
8675;SDS011;4375;52.486;13.424;2023-05-07T03:12:57;25.33;;;10.23;;
8675;SDS011;4375;52.486;13.424;2023-05-07T03:15:23;29.07;;;10.03;;
8675;SDS011;4375;52.486;13.424;2023-05-07T03:17:49;22.33;;;9.10;;
8675;SDS011;4375;52.486;13.424;2023-05-07T03:20:14;23.70;;;9.67;;
8675;SDS011;4375;52.486;13.424;2023-05-07T03:22:40;25.87;;;10.60;;
8675;SDS011;4375;52.486;13.424;2023-05-07T03:25:06;24.43;;;9.57;;
8675;SDS011;4375;52.486;13.424;2023-05-07T03:27:33;30.03;;;10.70;;
8675;SDS011;4375;52.486;13.424;2023-05-07T03:29:59;25.73;;;10.67;;
8675;SDS011;4375;52.486;13.424;2023-05-07T03:32:25;24.63;;;11.10;;
8675;SDS011;4375;52.486;13.424;2023-05-07T03:34:50;25.20;;;10.33;;
8675;SDS011;4375;52.486;13.424;2023-05-07T03:37:16;25.63;;;10.40;;
8675;SDS011;4375;52.486;13.424;2023-05-07T03:39:42;27.40;;;11.20;;
8675;SDS011;4375;52.486;13.424;2023-05-07T03:42:07;25.37;;;10.23;;
8675;SDS011;4375;52.486;13.424;2023-05-07T03:44:33;28.50;;;11.87;;
8675;SDS011;4375;52.486;13.424;2023-05-07T03:46:58;26.50;;;10.37;;
8675;SDS011;4375;52.486;13.424;2023-05-07T03:49:24;27.30;;;11.53;;
8675;SDS011;4375;52.486;13.424;2023-05-07T03:51:50;25.97;;;10.90;;
8675;SDS011;4375;52.486;13.424;2023-05-07T03:54:15;25.90;;;11.10;;
8675;SDS011;4375;52.486;13.424;2023-05-07T03:56:41;25.67;;;10.60;;
8675;SDS011;4375;52.486;13.424;2023-05-07T03:59:07;24.97;;;11.17;;
8675;SDS011;4375;52.486;13.424;2023-05-07T04:01:32;27.47;;;11.20;;
8675;SDS011;4375;52.486;13.424;2023-05-07T04:03:58;26.27;;;10.93;;
8675;SDS011;4375;52.486;13.424;2023-05-07T04:06:24;27.23;;;11.60;;
8675;SDS011;4375;52.486;13.424;2023-05-07T04:08:49;29.80;;;11.50;;
8675;SDS011;4375;52.486;13.424;2023-05-07T04:11:15;24.43;;;9.90;;
8675;SDS011;4375;52.486;13.424;2023-05-07T04:13:41;23.37;;;9.53;;
8675;SDS011;4375;52.486;13.424;2023-05-07T04:16:06;27.40;;;10.90;;
8675;SDS011;4375;52.486;13.424;2023-05-07T04:18:32;24.33;;;10.20;;
8675;SDS011;4375;52.486;13.424;2023-05-07T04:20:58;25.77;;;10.70;;
8675;SDS011;4375;52.486;13.424;2023-05-07T04:23:24;23.20;;;9.80;;
8675;SDS011;4375;52.486;13.424;2023-05-07T04:25:49;24.27;;;9.37;;
8675;SDS011;4375;52.486;13.424;2023-05-07T04:28:15;22.17;;;8.87;;
8675;SDS011;4375;52.486;13.424;2023-05-07T04:30:41;23.23;;;9.13;;
8675;SDS011;4375;52.486;13.424;2023-05-07T04:33:07;27.00;;;10.33;;
8675;SDS011;4375;52.486;13.424;2023-05-07T04:35:33;28.27;;;10.00;;
8675;SDS011;4375;52.486;13.424;2023-05-07T04:37:58;24.50;;;9.40;;
8675;SDS011;4375;52.486;13.424;2023-05-07T04:40:24;23.87;;;10.17;;
8675;SDS011;4375;52.486;13.424;2023-05-07T04:42:50;21.97;;;7.80;;
8675;SDS011;4375;52.486;13.424;2023-05-07T04:45:16;23.67;;;9.13;;
8675;SDS011;4375;52.486;13.424;2023-05-07T04:47:42;21.63;;;9.07;;
8675;SDS011;4375;52.486;13.424;2023-05-07T04:50:07;23.80;;;9.37;;
8675;SDS011;4375;52.486;13.424;2023-05-07T04:52:33;21.77;;;8.40;;
8675;SDS011;4375;52.486;13.424;2023-05-07T04:54:59;24.10;;;10.00;;
8675;SDS011;4375;52.486;13.424;2023-05-07T04:57:26;25.57;;;8.77;;
8675;SDS011;4375;52.486;13.424;2023-05-07T04:59:52;23.73;;;10.20;;
8675;SDS011;4375;52.486;13.424;2023-05-07T05:02:18;24.90;;;9.00;;
8675;SDS011;4375;52.486;13.424;2023-05-07T05:04:44;25.47;;;8.87;;
8675;SDS011;4375;52.486;13.424;2023-05-07T05:07:10;22.90;;;8.40;;
8675;SDS011;4375;52.486;13.424;2023-05-07T05:09:35;21.30;;;8.40;;
8675;SDS011;4375;52.486;13.424;2023-05-07T05:12:01;20.83;;;7.10;;
8675;SDS011;4375;52.486;13.424;2023-05-07T05:14:27;21.50;;;7.60;;
8675;SDS011;4375;52.486;13.424;2023-05-07T05:16:53;20.40;;;6.77;;
8675;SDS011;4375;52.486;13.424;2023-05-07T05:19:18;20.73;;;7.57;;
8675;SDS011;4375;52.486;13.424;2023-05-07T05:21:44;21.10;;;7.20;;
8675;SDS011;4375;52.486;13.424;2023-05-07T05:24:10;20.47;;;7.47;;
8675;SDS011;4375;52.486;13.424;2023-05-07T05:26:35;22.73;;;7.57;;
8675;SDS011;4375;52.486;13.424;2023-05-07T05:29:01;22.83;;;7.50;;
8675;SDS011;4375;52.486;13.424;2023-05-07T05:31:26;21.90;;;7.83;;
8675;SDS011;4375;52.486;13.424;2023-05-07T05:33:52;28.33;;;7.53;;
8675;SDS011;4375;52.486;13.424;2023-05-07T05:36:18;22.30;;;6.70;;
8675;SDS011;4375;52.486;13.424;2023-05-07T05:38:43;21.60;;;7.57;;
8675;SDS011;4375;52.486;13.424;2023-05-07T05:41:09;21.50;;;8.00;;
8675;SDS011;4375;52.486;13.424;2023-05-07T05:43:35;22.87;;;7.80;;
8675;SDS011;4375;52.486;13.424;2023-05-07T05:46:01;22.17;;;8.17;;
8675;SDS011;4375;52.486;13.424;2023-05-07T05:48:28;23.00;;;7.90;;
8675;SDS011;4375;52.486;13.424;2023-05-07T05:50:54;22.47;;;8.07;;
8675;SDS011;4375;52.486;13.424;2023-05-07T05:53:20;23.30;;;8.50;;
8675;SDS011;4375;52.486;13.424;2023-05-07T05:55:45;21.17;;;7.07;;
8675;SDS011;4375;52.486;13.424;2023-05-07T05:58:11;21.47;;;7.67;;
8675;SDS011;4375;52.486;13.424;2023-05-07T06:00:37;23.17;;;7.97;;
8675;SDS011;4375;52.486;13.424;2023-05-07T06:03:03;20.33;;;7.80;;
8675;SDS011;4375;52.486;13.424;2023-05-07T06:05:28;20.77;;;7.50;;
8675;SDS011;4375;52.486;13.424;2023-05-07T06:07:54;21.53;;;7.30;;
8675;SDS011;4375;52.486;13.424;2023-05-07T06:10:20;20.13;;;7.10;;
8675;SDS011;4375;52.486;13.424;2023-05-07T06:12:45;20.90;;;7.30;;
8675;SDS011;4375;52.486;13.424;2023-05-07T06:15:11;22.73;;;7.90;;
8675;SDS011;4375;52.486;13.424;2023-05-07T06:17:36;24.53;;;8.83;;
8675;SDS011;4375;52.486;13.424;2023-05-07T06:20:02;19.27;;;7.20;;
8675;SDS011;4375;52.486;13.424;2023-05-07T06:22:28;22.43;;;7.90;;
8675;SDS011;4375;52.486;13.424;2023-05-07T06:24:54;22.30;;;7.83;;
8675;SDS011;4375;52.486;13.424;2023-05-07T06:27:19;20.60;;;7.60;;
8675;SDS011;4375;52.486;13.424;2023-05-07T06:29:47;21.30;;;7.10;;
8675;SDS011;4375;52.486;13.424;2023-05-07T06:32:13;25.37;;;7.97;;
8675;SDS011;4375;52.486;13.424;2023-05-07T06:34:40;20.70;;;7.53;;
8675;SDS011;4375;52.486;13.424;2023-05-07T06:37:06;26.40;;;7.60;;
8675;SDS011;4375;52.486;13.424;2023-05-07T06:39:32;20.43;;;7.30;;
8675;SDS011;4375;52.486;13.424;2023-05-07T06:41:58;20.70;;;7.83;;
8675;SDS011;4375;52.486;13.424;2023-05-07T06:44:25;20.67;;;7.50;;
8675;SDS011;4375;52.486;13.424;2023-05-07T06:46:50;20.13;;;6.87;;
8675;SDS011;4375;52.486;13.424;2023-05-07T06:49:16;19.17;;;7.10;;
8675;SDS011;4375;52.486;13.424;2023-05-07T06:51:42;23.73;;;8.00;;
8675;SDS011;4375;52.486;13.424;2023-05-07T06:54:07;20.00;;;6.60;;
8675;SDS011;4375;52.486;13.424;2023-05-07T06:56:33;20.57;;;6.97;;
8675;SDS011;4375;52.486;13.424;2023-05-07T06:59:02;20.50;;;6.30;;
8675;SDS011;4375;52.486;13.424;2023-05-07T07:01:28;22.40;;;7.47;;
8675;SDS011;4375;52.486;13.424;2023-05-07T07:03:54;20.20;;;6.80;;
8675;SDS011;4375;52.486;13.424;2023-05-07T07:06:20;19.93;;;6.67;;
8675;SDS011;4375;52.486;13.424;2023-05-07T07:08:46;18.93;;;6.50;;
8675;SDS011;4375;52.486;13.424;2023-05-07T07:11:11;19.90;;;7.00;;
8675;SDS011;4375;52.486;13.424;2023-05-07T07:13:37;19.30;;;6.33;;
8675;SDS011;4375;52.486;13.424;2023-05-07T07:16:03;19.07;;;6.77;;
8675;SDS011;4375;52.486;13.424;2023-05-07T07:18:29;18.63;;;6.30;;
8675;SDS011;4375;52.486;13.424;2023-05-07T07:20:55;18.87;;;6.30;;
8675;SDS011;4375;52.486;13.424;2023-05-07T07:23:20;18.90;;;6.20;;
8675;SDS011;4375;52.486;13.424;2023-05-07T07:25:46;20.13;;;6.00;;
8675;SDS011;4375;52.486;13.424;2023-05-07T07:28:12;18.77;;;5.80;;
8675;SDS011;4375;52.486;13.424;2023-05-07T07:30:38;18.93;;;5.93;;
8675;SDS011;4375;52.486;13.424;2023-05-07T07:33:04;19.67;;;5.80;;
8675;SDS011;4375;52.486;13.424;2023-05-07T07:35:33;18.03;;;4.90;;
8675;SDS011;4375;52.486;13.424;2023-05-07T07:37:59;19.10;;;5.10;;
8675;SDS011;4375;52.486;13.424;2023-05-07T07:40:26;21.33;;;5.13;;
8675;SDS011;4375;52.486;13.424;2023-05-07T07:42:52;18.50;;;4.23;;
8675;SDS011;4375;52.486;13.424;2023-05-07T07:45:19;21.00;;;4.90;;
8675;SDS011;4375;52.486;13.424;2023-05-07T07:47:45;16.53;;;4.30;;
8675;SDS011;4375;52.486;13.424;2023-05-07T07:50:11;18.90;;;4.17;;
8675;SDS011;4375;52.486;13.424;2023-05-07T07:52:37;18.37;;;4.30;;
8675;SDS011;4375;52.486;13.424;2023-05-07T07:55:03;20.90;;;4.63;;
8675;SDS011;4375;52.486;13.424;2023-05-07T07:57:29;17.70;;;4.97;;
8675;SDS011;4375;52.486;13.424;2023-05-07T07:59:55;17.40;;;4.50;;
8675;SDS011;4375;52.486;13.424;2023-05-07T08:02:21;16.50;;;4.70;;
8675;SDS011;4375;52.486;13.424;2023-05-07T08:04:46;19.37;;;4.80;;
8675;SDS011;4375;52.486;13.424;2023-05-07T08:07:12;16.80;;;3.93;;
8675;SDS011;4375;52.486;13.424;2023-05-07T08:09:38;16.40;;;4.60;;
8675;SDS011;4375;52.486;13.424;2023-05-07T08:12:07;15.90;;;4.20;;
8675;SDS011;4375;52.486;13.424;2023-05-07T08:14:33;16.90;;;3.90;;
8675;SDS011;4375;52.486;13.424;2023-05-07T08:16:59;19.60;;;4.60;;
8675;SDS011;4375;52.486;13.424;2023-05-07T08:19:25;19.37;;;4.13;;
8675;SDS011;4375;52.486;13.424;2023-05-07T08:21:51;17.13;;;3.80;;
8675;SDS011;4375;52.486;13.424;2023-05-07T08:24:17;16.40;;;4.10;;
8675;SDS011;4375;52.486;13.424;2023-05-07T08:26:43;15.50;;;3.60;;
8675;SDS011;4375;52.486;13.424;2023-05-07T08:29:09;18.90;;;4.10;;
8675;SDS011;4375;52.486;13.424;2023-05-07T08:31:35;17.80;;;4.40;;
8675;SDS011;4375;52.486;13.424;2023-05-07T08:34:01;16.83;;;3.90;;
8675;SDS011;4375;52.486;13.424;2023-05-07T08:36:28;19.67;;;3.30;;
8675;SDS011;4375;52.486;13.424;2023-05-07T08:38:53;16.50;;;3.53;;
8675;SDS011;4375;52.486;13.424;2023-05-07T08:41:20;18.00;;;3.57;;
8675;SDS011;4375;52.486;13.424;2023-05-07T08:43:49;16.60;;;3.70;;
8675;SDS011;4375;52.486;13.424;2023-05-07T08:46:21;16.53;;;4.10;;
8675;SDS011;4375;52.486;13.424;2023-05-07T08:48:48;17.30;;;3.97;;
8675;SDS011;4375;52.486;13.424;2023-05-07T08:51:15;16.70;;;4.40;;
8675;SDS011;4375;52.486;13.424;2023-05-07T08:53:43;16.27;;;4.20;;
8675;SDS011;4375;52.486;13.424;2023-05-07T08:56:10;15.40;;;3.40;;
8675;SDS011;4375;52.486;13.424;2023-05-07T08:58:36;15.53;;;3.30;;
8675;SDS011;4375;52.486;13.424;2023-05-07T09:01:08;19.63;;;3.47;;
8675;SDS011;4375;52.486;13.424;2023-05-07T09:03:37;16.50;;;3.10;;
8675;SDS011;4375;52.486;13.424;2023-05-07T09:06:04;17.70;;;3.00;;
8675;SDS011;4375;52.486;13.424;2023-05-07T09:08:32;15.40;;;3.23;;
8675;SDS011;4375;52.486;13.424;2023-05-07T09:10:58;16.60;;;3.20;;
8675;SDS011;4375;52.486;13.424;2023-05-07T09:13:24;16.40;;;3.60;;
8675;SDS011;4375;52.486;13.424;2023-05-07T09:15:49;19.57;;;4.30;;
8675;SDS011;4375;52.486;13.424;2023-05-07T09:18:15;16.07;;;3.70;;
8675;SDS011;4375;52.486;13.424;2023-05-07T09:20:41;17.20;;;3.93;;
8675;SDS011;4375;52.486;13.424;2023-05-07T09:23:07;19.67;;;5.83;;
8675;SDS011;4375;52.486;13.424;2023-05-07T09:25:33;19.43;;;4.33;;
8675;SDS011;4375;52.486;13.424;2023-05-07T09:28:00;17.07;;;4.50;;
8675;SDS011;4375;52.486;13.424;2023-05-07T09:30:27;18.30;;;5.27;;
8675;SDS011;4375;52.486;13.424;2023-05-07T09:32:54;19.80;;;5.60;;
8675;SDS011;4375;52.486;13.424;2023-05-07T09:35:20;17.40;;;3.97;;
8675;SDS011;4375;52.486;13.424;2023-05-07T09:37:46;17.93;;;4.00;;
8675;SDS011;4375;52.486;13.424;2023-05-07T09:40:22;15.83;;;3.60;;
8675;SDS011;4375;52.486;13.424;2023-05-07T09:42:52;17.43;;;4.17;;
8675;SDS011;4375;52.486;13.424;2023-05-07T09:45:25;15.63;;;3.53;;
8675;SDS011;4375;52.486;13.424;2023-05-07T09:47:54;16.57;;;4.00;;
8675;SDS011;4375;52.486;13.424;2023-05-07T09:50:28;17.37;;;3.30;;
8675;SDS011;4375;52.486;13.424;2023-05-07T09:52:57;17.50;;;3.37;;
8675;SDS011;4375;52.486;13.424;2023-05-07T09:55:24;15.53;;;3.17;;
8675;SDS011;4375;52.486;13.424;2023-05-07T09:57:51;16.03;;;2.90;;
8675;SDS011;4375;52.486;13.424;2023-05-07T10:00:21;20.23;;;3.37;;
8675;SDS011;4375;52.486;13.424;2023-05-07T10:02:48;16.13;;;3.23;;
8675;SDS011;4375;52.486;13.424;2023-05-07T10:05:16;15.30;;;3.20;;
8675;SDS011;4375;52.486;13.424;2023-05-07T10:07:46;15.93;;;3.33;;
8675;SDS011;4375;52.486;13.424;2023-05-07T10:10:13;16.30;;;3.97;;
8675;SDS011;4375;52.486;13.424;2023-05-07T10:12:40;17.77;;;3.00;;
8675;SDS011;4375;52.486;13.424;2023-05-07T10:15:06;17.47;;;3.10;;
8675;SDS011;4375;52.486;13.424;2023-05-07T10:17:36;15.50;;;2.80;;
8675;SDS011;4375;52.486;13.424;2023-05-07T10:20:03;15.27;;;2.43;;
8675;SDS011;4375;52.486;13.424;2023-05-07T10:22:37;16.87;;;2.63;;
8675;SDS011;4375;52.486;13.424;2023-05-07T10:25:04;14.23;;;2.23;;
8675;SDS011;4375;52.486;13.424;2023-05-07T10:27:39;14.77;;;2.30;;
8675;SDS011;4375;52.486;13.424;2023-05-07T10:32:48;16.40;;;2.70;;
8675;SDS011;4375;52.486;13.424;2023-05-07T10:35:20;15.97;;;3.10;;
8675;SDS011;4375;52.486;13.424;2023-05-07T10:37:49;16.20;;;3.13;;
8675;SDS011;4375;52.486;13.424;2023-05-07T10:40:15;14.23;;;2.13;;
8675;SDS011;4375;52.486;13.424;2023-05-07T10:42:55;14.93;;;2.40;;
8675;SDS011;4375;52.486;13.424;2023-05-07T10:45:26;14.33;;;2.03;;
8675;SDS011;4375;52.486;13.424;2023-05-07T10:48:05;14.40;;;2.40;;
8675;SDS011;4375;52.486;13.424;2023-05-07T10:50:38;19.43;;;2.43;;
8675;SDS011;4375;52.486;13.424;2023-05-07T10:55:43;14.83;;;2.30;;
8675;SDS011;4375;52.486;13.424;2023-05-07T10:58:22;15.80;;;2.27;;
8675;SDS011;4375;52.486;13.424;2023-05-07T11:00:58;14.97;;;2.10;;
8675;SDS011;4375;52.486;13.424;2023-05-07T11:03:26;15.03;;;2.77;;
8675;SDS011;4375;52.486;13.424;2023-05-07T11:06:08;15.50;;;2.43;;
8675;SDS011;4375;52.486;13.424;2023-05-07T11:08:54;15.70;;;2.40;;
8675;SDS011;4375;52.486;13.424;2023-05-07T11:17:06;14.10;;;2.13;;
8675;SDS011;4375;52.486;13.424;2023-05-07T11:19:48;14.80;;;2.37;;
8675;SDS011;4375;52.486;13.424;2023-05-07T11:24:55;17.20;;;2.63;;
8675;SDS011;4375;52.486;13.424;2023-05-07T11:27:25;14.70;;;2.50;;
8675;SDS011;4375;52.486;13.424;2023-05-07T11:29:51;14.90;;;2.30;;
8675;SDS011;4375;52.486;13.424;2023-05-07T11:32:24;15.63;;;2.40;;
8675;SDS011;4375;52.486;13.424;2023-05-07T11:34:53;14.93;;;2.10;;
8675;SDS011;4375;52.486;13.424;2023-05-07T11:37:20;15.23;;;2.70;;
8675;SDS011;4375;52.486;13.424;2023-05-07T11:39:46;15.27;;;2.37;;
8675;SDS011;4375;52.486;13.424;2023-05-07T11:42:25;14.97;;;2.43;;
8675;SDS011;4375;52.486;13.424;2023-05-07T11:44:51;17.17;;;2.67;;
8675;SDS011;4375;52.486;13.424;2023-05-07T11:47:17;14.30;;;2.37;;
8675;SDS011;4375;52.486;13.424;2023-05-07T11:49:46;14.87;;;2.40;;
8675;SDS011;4375;52.486;13.424;2023-05-07T11:52:13;15.40;;;2.70;;
8675;SDS011;4375;52.486;13.424;2023-05-07T11:54:39;14.50;;;2.57;;
8675;SDS011;4375;52.486;13.424;2023-05-07T11:57:05;16.40;;;3.70;;
8675;SDS011;4375;52.486;13.424;2023-05-07T11:59:38;16.00;;;3.07;;
8675;SDS011;4375;52.486;13.424;2023-05-07T12:02:09;14.77;;;2.10;;
8675;SDS011;4375;52.486;13.424;2023-05-07T12:04:35;14.83;;;2.57;;
8675;SDS011;4375;52.486;13.424;2023-05-07T12:07:02;15.50;;;2.67;;
8675;SDS011;4375;52.486;13.424;2023-05-07T12:09:28;16.13;;;2.70;;
8675;SDS011;4375;52.486;13.424;2023-05-07T12:11:54;14.90;;;2.57;;
8675;SDS011;4375;52.486;13.424;2023-05-07T12:14:21;16.50;;;2.60;;
8675;SDS011;4375;52.486;13.424;2023-05-07T12:16:46;14.10;;;2.10;;
8675;SDS011;4375;52.486;13.424;2023-05-07T12:19:13;16.60;;;2.13;;
8675;SDS011;4375;52.486;13.424;2023-05-07T12:21:39;16.03;;;2.40;;
8675;SDS011;4375;52.486;13.424;2023-05-07T12:24:05;14.77;;;2.47;;
8675;SDS011;4375;52.486;13.424;2023-05-07T12:26:33;15.90;;;2.63;;
8675;SDS011;4375;52.486;13.424;2023-05-07T12:29:03;13.90;;;2.10;;
8675;SDS011;4375;52.486;13.424;2023-05-07T12:31:28;15.77;;;2.13;;
8675;SDS011;4375;52.486;13.424;2023-05-07T12:33:55;19.77;;;2.50;;
8675;SDS011;4375;52.486;13.424;2023-05-07T12:36:20;16.43;;;2.70;;
8675;SDS011;4375;52.486;13.424;2023-05-07T12:38:46;14.57;;;2.03;;
8675;SDS011;4375;52.486;13.424;2023-05-07T12:41:14;15.43;;;2.30;;
8675;SDS011;4375;52.486;13.424;2023-05-07T12:43:42;15.30;;;2.43;;
8675;SDS011;4375;52.486;13.424;2023-05-07T12:46:09;15.77;;;2.30;;
8675;SDS011;4375;52.486;13.424;2023-05-07T12:48:38;15.60;;;2.73;;
8675;SDS011;4375;52.486;13.424;2023-05-07T12:51:09;14.83;;;2.10;;
8675;SDS011;4375;52.486;13.424;2023-05-07T12:53:39;14.60;;;2.00;;
8675;SDS011;4375;52.486;13.424;2023-05-07T12:56:08;14.83;;;2.37;;
8675;SDS011;4375;52.486;13.424;2023-05-07T12:58:35;21.13;;;2.27;;
8675;SDS011;4375;52.486;13.424;2023-05-07T13:01:03;14.47;;;2.23;;
8675;SDS011;4375;52.486;13.424;2023-05-07T13:03:31;16.70;;;2.10;;
8675;SDS011;4375;52.486;13.424;2023-05-07T13:05:58;14.27;;;2.00;;
8675;SDS011;4375;52.486;13.424;2023-05-07T13:08:47;14.33;;;2.20;;
8675;SDS011;4375;52.486;13.424;2023-05-07T13:11:12;13.70;;;1.83;;
8675;SDS011;4375;52.486;13.424;2023-05-07T13:13:38;15.90;;;1.90;;
8675;SDS011;4375;52.486;13.424;2023-05-07T13:16:07;14.07;;;2.00;;
8675;SDS011;4375;52.486;13.424;2023-05-07T13:18:34;16.57;;;2.47;;
8675;SDS011;4375;52.486;13.424;2023-05-07T13:21:00;16.93;;;2.17;;
8675;SDS011;4375;52.486;13.424;2023-05-07T13:23:26;14.83;;;2.40;;
8675;SDS011;4375;52.486;13.424;2023-05-07T13:25:52;14.73;;;2.03;;
8675;SDS011;4375;52.486;13.424;2023-05-07T13:28:23;15.60;;;3.00;;
8675;SDS011;4375;52.486;13.424;2023-05-07T13:30:49;15.30;;;2.83;;
8675;SDS011;4375;52.486;13.424;2023-05-07T13:33:16;14.17;;;2.00;;
8675;SDS011;4375;52.486;13.424;2023-05-07T13:35:42;14.10;;;1.93;;
8675;SDS011;4375;52.486;13.424;2023-05-07T13:38:08;14.00;;;1.87;;
8675;SDS011;4375;52.486;13.424;2023-05-07T13:40:34;14.60;;;2.23;;
8675;SDS011;4375;52.486;13.424;2023-05-07T13:42:59;15.47;;;2.30;;
8675;SDS011;4375;52.486;13.424;2023-05-07T13:45:27;15.27;;;1.80;;
8675;SDS011;4375;52.486;13.424;2023-05-07T13:47:54;14.90;;;1.93;;
8675;SDS011;4375;52.486;13.424;2023-05-07T13:50:21;16.90;;;2.10;;
8675;SDS011;4375;52.486;13.424;2023-05-07T13:52:47;15.13;;;2.20;;
8675;SDS011;4375;52.486;13.424;2023-05-07T13:55:19;16.13;;;2.10;;
8675;SDS011;4375;52.486;13.424;2023-05-07T13:57:45;14.93;;;2.30;;
8675;SDS011;4375;52.486;13.424;2023-05-07T14:00:12;15.70;;;2.10;;
8675;SDS011;4375;52.486;13.424;2023-05-07T14:02:38;14.50;;;2.10;;
8675;SDS011;4375;52.486;13.424;2023-05-07T14:05:04;14.40;;;2.07;;
8675;SDS011;4375;52.486;13.424;2023-05-07T14:07:30;15.10;;;2.40;;
8675;SDS011;4375;52.486;13.424;2023-05-07T14:09:56;17.97;;;2.27;;
8675;SDS011;4375;52.486;13.424;2023-05-07T14:12:22;14.77;;;2.30;;
8675;SDS011;4375;52.486;13.424;2023-05-07T14:14:48;17.23;;;2.00;;
8675;SDS011;4375;52.486;13.424;2023-05-07T14:17:15;14.50;;;2.20;;
8675;SDS011;4375;52.486;13.424;2023-05-07T14:19:41;15.20;;;2.17;;
8675;SDS011;4375;52.486;13.424;2023-05-07T14:22:07;15.13;;;1.90;;
8675;SDS011;4375;52.486;13.424;2023-05-07T14:24:33;15.17;;;1.97;;
8675;SDS011;4375;52.486;13.424;2023-05-07T14:26:59;15.40;;;1.80;;
8675;SDS011;4375;52.486;13.424;2023-05-07T14:29:25;18.47;;;2.60;;
8675;SDS011;4375;52.486;13.424;2023-05-07T14:31:50;14.47;;;2.30;;
8675;SDS011;4375;52.486;13.424;2023-05-07T14:34:16;15.10;;;1.93;;
8675;SDS011;4375;52.486;13.424;2023-05-07T14:36:42;13.90;;;1.73;;
8675;SDS011;4375;52.486;13.424;2023-05-07T14:39:08;15.30;;;1.80;;
8675;SDS011;4375;52.486;13.424;2023-05-07T14:41:34;14.00;;;1.73;;
8675;SDS011;4375;52.486;13.424;2023-05-07T14:44:00;14.63;;;2.20;;
8675;SDS011;4375;52.486;13.424;2023-05-07T14:46:28;14.90;;;2.20;;
8675;SDS011;4375;52.486;13.424;2023-05-07T14:48:55;15.00;;;2.03;;
8675;SDS011;4375;52.486;13.424;2023-05-07T14:51:21;14.20;;;1.90;;
8675;SDS011;4375;52.486;13.424;2023-05-07T14:53:47;15.57;;;2.27;;
8675;SDS011;4375;52.486;13.424;2023-05-07T14:56:13;15.73;;;2.00;;